Time;durP1;ratioP1;P1;durP2;ratioP2;P2;SDS_P1;SDS_P2;PMS_P1;PMS_P2;Temp;Humidity;BMP_temperature;BMP_pressure;BME280_temperature;BME280_humidity;BME280_pressure;Samples;Min_cycle;Max_cycle;Signal;HPM_P1;HPM_P2
2022/10/21 00:01:53;;;;;;;32.85;20.58;;;;;;;;;;10508792;28;20396;-89
2022/10/21 00:06:56;;;;;;;30.45;20.48;;;;;;;;;;10503407;28;20457;-90
2022/10/21 00:11:58;;;;;;;29.85;21.20;;;;;;;;;;10507485;28;20423;-89
2022/10/21 00:17:00;;;;;;;31.73;20.88;;;;;;;;;;10508582;28;20748;-89
2022/10/21 00:22:03;;;;;;;28.95;19.90;;;;;;;;;;10506434;28;20400;-88
2022/10/21 00:27:05;;;;;;;33.23;20.90;;;;;;;;;;10510627;28;20770;-88
2022/10/21 00:32:07;;;;;;;30.27;20.60;;;;;;;;;;10504279;28;20526;-89
2022/10/21 00:37:11;;;;;;;28.27;19.85;;;;;;;;;;10507166;28;20857;-90
2022/10/21 00:42:16;;;;;;;29.15;20.02;;;;;;;;;;10508599;28;20783;-91
2022/10/21 00:47:22;;;;;;;31.80;21.00;;;;;;;;;;10510839;28;20461;-90
2022/10/21 00:52:27;;;;;;;32.80;20.37;;;;;;;;;;10524338;28;20502;-89
2022/10/21 00:57:33;;;;;;;31.63;20.60;;;;;;;;;;10510374;28;20824;-90
2022/10/21 01:02:35;;;;;;;29.48;20.42;;;;;;;;;;10521771;28;20396;-89
2022/10/21 01:07:38;;;;;;;31.20;20.40;;;;;;;;;;10518333;28;20400;-89
2022/10/21 01:12:51;;;;;;;29.75;20.85;;;;;;;;;;10551913;28;20442;-90
2022/10/21 01:18:01;;;;;;;32.17;20.83;;;;;;;;;;10529904;28;20396;-90
2022/10/21 01:23:39;;;;;;;32.15;21.45;;;;;;;;;;10544105;28;21117;-90
2022/10/21 01:28:53;;;;;;;29.48;20.65;;;;;;;;;;10540835;28;20410;-89
2022/10/21 01:34:01;;;;;;;29.02;20.35;;;;;;;;;;10519963;28;20417;-89
2022/10/21 01:39:13;;;;;;;29.93;19.23;;;;;;;;;;10531799;28;20558;-90
2022/10/21 01:44:23;;;;;;;29.83;20.20;;;;;;;;;;10533401;28;20418;-91
2022/10/21 01:49:32;;;;;;;29.98;19.95;;;;;;;;;;10510832;28;20448;-91
2022/10/21 01:54:38;;;;;;;31.37;20.30;;;;;;;;;;10496650;28;20417;-90
2022/10/21 01:59:42;;;;;;;26.90;19.23;;;;;;;;;;10541220;28;20404;-90
2022/10/21 02:04:50;;;;;;;29.58;19.45;;;;;;;;;;10517552;28;20596;-89
2022/10/21 02:09:52;;;;;;;26.00;18.88;;;;;;;;;;10529216;28;20415;-90
2022/10/21 02:14:56;;;;;;;27.52;19.08;;;;;;;;;;10521755;28;20445;-88
2022/10/21 02:20:03;;;;;;;27.98;18.95;;;;;;;;;;10526550;28;20455;-90
2022/10/21 02:25:11;;;;;;;28.52;18.30;;;;;;;;;;10526918;28;20489;-90
2022/10/21 02:30:13;;;;;;;29.20;18.02;;;;;;;;;;10508301;28;20844;-90
2022/10/21 02:35:23;;;;;;;26.10;18.30;;;;;;;;;;10541486;28;20829;-91
2022/10/21 02:40:31;;;;;;;24.70;16.97;;;;;;;;;;10523659;28;20472;-91
2022/10/21 02:45:34;;;;;;;27.33;18.02;;;;;;;;;;10521598;28;20488;-91
2022/10/21 02:50:37;;;;;;;28.50;17.90;;;;;;;;;;10543293;28;20427;-90
2022/10/21 02:55:39;;;;;;;27.38;18.30;;;;;;;;;;10536934;28;20432;-91
2022/10/21 03:00:41;;;;;;;23.83;17.65;;;;;;;;;;10520230;28;20405;-89
2022/10/21 03:05:45;;;;;;;27.55;16.98;;;;;;;;;;10541703;28;20409;-90
2022/10/21 03:10:48;;;;;;;26.33;18.15;;;;;;;;;;10515453;28;20451;-90
2022/10/21 03:15:51;;;;;;;27.60;18.30;;;;;;;;;;10539965;28;20417;-90
2022/10/21 03:20:54;;;;;;;28.87;18.67;;;;;;;;;;10538356;28;20428;-91
2022/10/21 03:25:56;;;;;;;27.13;19.20;;;;;;;;;;10536050;28;20937;-90
2022/10/21 03:30:58;;;;;;;27.13;18.60;;;;;;;;;;10544939;28;20443;-89
2022/10/21 03:36:01;;;;;;;28.60;19.83;;;;;;;;;;10547709;28;20430;-90
2022/10/21 03:41:03;;;;;;;31.65;20.10;;;;;;;;;;10521110;28;20444;-90
2022/10/21 03:46:05;;;;;;;31.63;21.00;;;;;;;;;;10520085;28;20454;-91
2022/10/21 03:51:08;;;;;;;34.92;20.67;;;;;;;;;;10522304;28;20453;-89
2022/10/21 03:56:12;;;;;;;30.77;20.60;;;;;;;;;;10562213;28;20445;-90
2022/10/21 04:01:14;;;;;;;33.22;21.98;;;;;;;;;;10518065;28;20441;-90
2022/10/21 04:06:17;;;;;;;33.78;22.42;;;;;;;;;;10560345;28;20431;-90
2022/10/21 04:11:19;;;;;;;34.20;22.23;;;;;;;;;;10549596;28;20995;-91
2022/10/21 04:16:22;;;;;;;34.78;22.83;;;;;;;;;;10538699;28;20438;-90
2022/10/21 04:21:25;;;;;;;33.72;22.50;;;;;;;;;;10546740;28;20430;-89
2022/10/21 04:26:27;;;;;;;32.67;22.00;;;;;;;;;;10534801;28;20427;-90
2022/10/21 04:31:29;;;;;;;34.70;21.92;;;;;;;;;;10541609;28;20414;-90
2022/10/21 04:36:34;;;;;;;35.67;22.13;;;;;;;;;;10502419;28;21006;-90
2022/10/21 04:41:36;;;;;;;37.53;22.83;;;;;;;;;;10527525;28;20435;-90
2022/10/21 04:46:38;;;;;;;32.67;22.47;;;;;;;;;;10515719;28;20393;-91
2022/10/21 04:51:41;;;;;;;34.13;21.77;;;;;;;;;;10543261;28;20503;-90
2022/10/21 04:56:43;;;;;;;33.20;21.50;;;;;;;;;;10533206;28;20486;-91
2022/10/21 05:01:45;;;;;;;34.95;21.98;;;;;;;;;;10516776;28;20422;-91
2022/10/21 05:06:49;;;;;;;31.58;20.40;;;;;;;;;;10523364;28;20405;-90
2022/10/21 05:11:51;;;;;;;30.10;20.07;;;;;;;;;;10523560;28;21000;-90
2022/10/21 05:16:53;;;;;;;30.07;20.10;;;;;;;;;;10525018;28;20437;-90
2022/10/21 05:21:56;;;;;;;31.42;20.67;;;;;;;;;;10539084;28;20945;-91
2022/10/21 05:26:58;;;;;;;31.10;20.07;;;;;;;;;;10544102;28;20451;-90
2022/10/21 05:32:00;;;;;;;31.70;19.97;;;;;;;;;;10523146;28;20499;-89
2022/10/21 05:37:03;;;;;;;27.77;18.67;;;;;;;;;;10516348;28;20440;-88
2022/10/21 05:42:05;;;;;;;28.10;19.20;;;;;;;;;;10517403;28;20432;-88
2022/10/21 05:47:07;;;;;;;29.83;19.90;;;;;;;;;;10520385;28;20493;-88
2022/10/21 05:52:10;;;;;;;31.33;19.88;;;;;;;;;;10517894;28;20457;-88
2022/10/21 05:57:12;;;;;;;30.97;20.30;;;;;;;;;;10521436;28;20448;-89
2022/10/21 06:02:14;;;;;;;32.37;20.63;;;;;;;;;;10521950;28;21199;-90
2022/10/21 06:07:17;;;;;;;31.23;19.92;;;;;;;;;;10521073;28;20515;-90
2022/10/21 06:12:19;;;;;;;27.55;17.55;;;;;;;;;;10530681;28;20995;-90
2022/10/21 06:17:22;;;;;;;28.55;17.65;;;;;;;;;;10517827;28;21139;-89
2022/10/21 06:22:26;;;;;;;26.30;18.05;;;;;;;;;;10528157;28;20486;-87
2022/10/21 06:27:28;;;;;;;27.73;17.27;;;;;;;;;;10487198;28;20473;-85
2022/10/21 06:32:30;;;;;;;28.27;18.25;;;;;;;;;;10527198;28;20930;-87
2022/10/21 06:37:34;;;;;;;27.67;18.00;;;;;;;;;;10525952;28;20400;-88
2022/10/21 06:42:36;;;;;;;27.67;18.55;;;;;;;;;;10531043;28;20404;-88
2022/10/21 06:47:37;;;;;;;28.47;18.83;;;;;;;;;;10516660;28;20427;-88
2022/10/21 06:52:41;;;;;;;30.85;18.08;;;;;;;;;;10539627;28;20412;-88
2022/10/21 06:57:43;;;;;;;28.93;17.83;;;;;;;;;;10528040;28;20432;-88
2022/10/21 07:02:45;;;;;;;29.75;18.63;;;;;;;;;;10511437;28;20811;-87
2022/10/21 07:07:48;;;;;;;27.00;18.05;;;;;;;;;;10521437;28;20436;-89
2022/10/21 07:12:50;;;;;;;28.63;18.20;;;;;;;;;;10514280;28;20848;-88
2022/10/21 07:17:58;;;;;;;26.88;18.23;;;;;;;;;;10527658;28;20440;-86
2022/10/21 07:23:01;;;;;;;30.45;17.92;;;;;;;;;;10530467;28;20408;-89
2022/10/21 07:28:03;;;;;;;26.98;17.35;;;;;;;;;;10519091;28;20457;-86
2022/10/21 07:33:05;;;;;;;24.17;15.47;;;;;;;;;;10520105;28;20444;-87
2022/10/21 07:38:08;;;;;;;24.07;14.67;;;;;;;;;;10518428;28;20424;-86
2022/10/21 07:43:11;;;;;;;20.92;13.45;;;;;;;;;;10524924;28;20439;-88
2022/10/21 07:48:13;;;;;;;22.10;14.40;;;;;;;;;;10521268;28;20529;-85
2022/10/21 07:53:16;;;;;;;23.30;14.43;;;;;;;;;;10523141;28;20711;-87
2022/10/21 07:58:18;;;;;;;24.70;12.55;;;;;;;;;;10520681;28;20427;-88
2022/10/21 08:03:20;;;;;;;19.63;12.27;;;;;;;;;;10522730;28;20413;-88
2022/10/21 08:08:23;;;;;;;18.93;11.70;;;;;;;;;;10528677;28;20814;-86
2022/10/21 08:13:25;;;;;;;19.07;11.93;;;;;;;;;;10520137;28;20860;-87
2022/10/21 08:18:28;;;;;;;23.45;11.63;;;;;;;;;;10518152;28;20440;-87
2022/10/21 08:23:32;;;;;;;20.40;11.77;;;;;;;;;;10520692;28;20432;-86
2022/10/21 08:28:33;;;;;;;20.00;12.18;;;;;;;;;;10520090;28;20405;-88
2022/10/21 08:33:36;;;;;;;16.27;12.48;;;;;;;;;;10515153;28;20412;-87
2022/10/21 08:38:39;;;;;;;18.63;11.87;;;;;;;;;;10520912;28;20493;-86
2022/10/21 08:43:43;;;;;;;18.80;11.57;;;;;;;;;;10515335;28;20432;-84
2022/10/21 08:48:50;;;;;;;20.77;12.23;;;;;;;;;;10521359;28;20489;-87
2022/10/21 08:53:57;;;;;;;18.97;11.53;;;;;;;;;;10522160;28;20597;-87
2022/10/21 08:58:59;;;;;;;22.70;11.70;;;;;;;;;;10516092;28;20408;-87
2022/10/21 09:04:14;;;;;;;21.33;12.48;;;;;;;;;;10509962;28;20471;-89
2022/10/21 09:09:23;;;;;;;18.58;12.35;;;;;;;;;;10516439;28;20424;-86
2022/10/21 09:14:55;;;;;;;19.13;12.27;;;;;;;;;;10510451;28;20544;-88
2022/10/21 09:20:06;;;;;;;17.67;11.77;;;;;;;;;;10511267;28;20785;-85
2022/10/21 09:25:19;;;;;;;21.65;12.35;;;;;;;;;;10517293;28;20428;-89
2022/10/21 09:30:22;;;;;;;19.70;12.40;;;;;;;;;;10516367;28;20513;-88
2022/10/21 09:35:31;;;;;;;21.33;13.37;;;;;;;;;;10527543;28;20466;-87
2022/10/21 09:40:34;;;;;;;21.92;12.82;;;;;;;;;;10513202;28;20501;-89
2022/10/21 09:45:39;;;;;;;20.50;13.37;;;;;;;;;;10525391;28;20899;-88
2022/10/21 09:50:41;;;;;;;21.13;12.90;;;;;;;;;;10525102;28;20411;-88
2022/10/21 09:55:47;;;;;;;22.17;13.85;;;;;;;;;;10522164;28;20438;-89
2022/10/21 10:00:50;;;;;;;18.33;13.57;;;;;;;;;;10519069;28;20541;-89
2022/10/21 10:05:52;;;;;;;20.77;13.68;;;;;;;;;;10531730;28;20982;-89
2022/10/21 10:11:02;;;;;;;18.15;13.27;;;;;;;;;;10524763;28;20443;-88
2022/10/21 10:16:16;;;;;;;20.98;13.05;;;;;;;;;;10530937;28;20501;-87
2022/10/21 10:21:20;;;;;;;19.48;13.13;;;;;;;;;;10518750;28;20419;-89
2022/10/21 10:26:28;;;;;;;18.65;13.13;;;;;;;;;;10520936;28;20426;-89
2022/10/21 10:31:32;;;;;;;18.83;11.83;;;;;;;;;;10525165;28;20445;-90
2022/10/21 10:36:37;;;;;;;17.17;11.57;;;;;;;;;;10527916;28;20480;-89
2022/10/21 10:41:45;;;;;;;15.82;11.77;;;;;;;;;;10530385;28;20464;-90
2022/10/21 10:46:54;;;;;;;12.98;9.60;;;;;;;;;;10544750;28;20436;-90
2022/10/21 10:52:15;;;;;;;13.32;9.93;;;;;;;;;;10530470;28;20539;-90
2022/10/21 10:57:23;;;;;;;15.32;10.57;;;;;;;;;;10525109;28;21309;-90
2022/10/21 11:02:35;;;;;;;16.30;10.68;;;;;;;;;;10525506;28;20416;-89
2022/10/21 11:07:44;;;;;;;15.93;10.80;;;;;;;;;;10506872;28;21286;-89
2022/10/21 11:12:47;;;;;;;13.93;9.93;;;;;;;;;;10530318;28;20422;-89
2022/10/21 11:17:57;;;;;;;15.97;9.87;;;;;;;;;;10514355;28;20455;-89
2022/10/21 11:23:17;;;;;;;14.82;9.88;;;;;;;;;;10518661;28;20401;-88
2022/10/21 11:28:27;;;;;;;21.70;9.97;;;;;;;;;;10519709;28;20503;-88
2022/10/21 11:33:39;;;;;;;15.25;10.35;;;;;;;;;;10518878;28;20668;-87
2022/10/21 11:39:00;;;;;;;14.50;9.77;;;;;;;;;;10515949;28;20450;-87
2022/10/21 11:44:20;;;;;;;15.07;9.70;;;;;;;;;;10516869;28;20432;-88
2022/10/21 11:49:37;;;;;;;14.18;9.43;;;;;;;;;;10514214;28;20879;-88
2022/10/21 11:55:03;;;;;;;16.15;9.25;;;;;;;;;;10516537;28;20451;-88
2022/10/21 12:00:13;;;;;;;14.10;9.00;;;;;;;;;;10501525;28;20458;-88
2022/10/21 12:05:24;;;;;;;17.33;9.13;;;;;;;;;;10517013;28;20497;-89
2022/10/21 12:10:32;;;;;;;15.75;9.20;;;;;;;;;;10519999;28;20456;-88
2022/10/21 12:15:40;;;;;;;12.20;9.25;;;;;;;;;;10527562;28;20413;-90
2022/10/21 12:20:45;;;;;;;16.00;10.70;;;;;;;;;;10518502;28;20527;-88
2022/10/21 12:26:05;;;;;;;14.90;10.20;;;;;;;;;;10513310;28;20411;-88
2022/10/21 12:31:22;;;;;;;16.15;11.77;;;;;;;;;;10515482;28;20963;-85
2022/10/21 12:36:45;;;;;;;14.05;11.20;;;;;;;;;;10516504;28;20907;-86
2022/10/21 12:41:48;;;;;;;18.55;11.07;;;;;;;;;;10517080;28;20408;-88
2022/10/21 12:46:53;;;;;;;17.50;11.27;;;;;;;;;;10521896;28;20926;-88
2022/10/21 12:52:03;;;;;;;16.47;10.83;;;;;;;;;;10516961;28;21119;-89
2022/10/21 12:57:07;;;;;;;18.83;11.60;;;;;;;;;;10512113;28;20407;-89
2022/10/21 13:02:20;;;;;;;15.67;10.63;;;;;;;;;;10513331;28;20714;-89
2022/10/21 13:07:31;;;;;;;15.80;10.63;;;;;;;;;;10525673;28;20480;-89
2022/10/21 13:12:33;;;;;;;17.27;11.45;;;;;;;;;;10516247;28;20516;-87
2022/10/21 13:18:00;;;;;;;16.08;11.07;;;;;;;;;;10508325;28;20957;-87
2022/10/21 13:23:30;;;;;;;17.35;10.57;;;;;;;;;;10496807;28;20440;-88
2022/10/21 13:28:32;;;;;;;14.87;10.13;;;;;;;;;;10520011;28;20959;-89
2022/10/21 13:33:37;;;;;;;16.98;11.13;;;;;;;;;;10517202;28;20490;-86
2022/10/21 13:38:48;;;;;;;18.90;11.00;;;;;;;;;;10519611;28;20403;-87
2022/10/21 13:43:54;;;;;;;18.85;11.68;;;;;;;;;;10521020;28;20495;-89
2022/10/21 13:48:59;;;;;;;17.05;11.90;;;;;;;;;;10514327;28;20426;-88
2022/10/21 13:54:07;;;;;;;19.30;12.30;;;;;;;;;;10530458;28;20419;-88
2022/10/21 13:59:22;;;;;;;20.35;12.65;;;;;;;;;;10498506;28;20468;-88
2022/10/21 14:04:27;;;;;;;19.70;12.40;;;;;;;;;;10516683;28;20404;-88
2022/10/21 14:09:32;;;;;;;21.73;12.45;;;;;;;;;;10514492;28;20447;-90
2022/10/21 14:14:38;;;;;;;17.67;11.55;;;;;;;;;;10520364;28;20411;-90
2022/10/21 14:19:42;;;;;;;17.67;11.57;;;;;;;;;;10488062;28;20436;-87
2022/10/21 14:24:46;;;;;;;16.80;10.80;;;;;;;;;;10504528;28;21251;-88
2022/10/21 14:29:48;;;;;;;18.08;10.60;;;;;;;;;;10492599;28;20500;-87
2022/10/21 14:35:05;;;;;;;16.13;10.87;;;;;;;;;;10504741;28;20535;-87
2022/10/21 14:40:19;;;;;;;14.25;9.82;;;;;;;;;;10493667;28;20488;-87
2022/10/21 14:45:26;;;;;;;19.17;10.37;;;;;;;;;;10513187;28;20469;-89
2022/10/21 14:50:31;;;;;;;16.58;10.25;;;;;;;;;;10510701;28;20881;-87
2022/10/21 14:55:33;;;;;;;16.98;10.57;;;;;;;;;;10511399;28;20892;-89
2022/10/21 15:00:40;;;;;;;17.30;10.82;;;;;;;;;;10500780;28;20436;-88
2022/10/21 15:05:46;;;;;;;15.95;10.10;;;;;;;;;;10513006;28;20412;-89
2022/10/21 15:11:22;;;;;;;18.48;11.23;;;;;;;;;;10513276;28;20403;-88
2022/10/21 15:16:27;;;;;;;18.30;11.10;;;;;;;;;;10520887;28;20415;-86
2022/10/21 15:21:36;;;;;;;18.75;10.82;;;;;;;;;;10516239;28;20491;-86
2022/10/21 15:26:40;;;;;;;14.77;10.45;;;;;;;;;;10525170;28;20511;-88
2022/10/21 15:31:42;;;;;;;18.23;10.27;;;;;;;;;;10516437;28;20508;-89
2022/10/21 15:36:45;;;;;;;16.52;11.30;;;;;;;;;;10519383;28;20519;-86
2022/10/21 15:41:49;;;;;;;17.23;10.90;;;;;;;;;;10518504;28;20413;-87
2022/10/21 15:46:56;;;;;;;21.58;13.93;;;;;;;;;;10509288;28;20796;-88
2022/10/21 15:52:00;;;;;;;20.98;13.20;;;;;;;;;;10512592;28;20428;-89
2022/10/21 15:57:03;;;;;;;23.95;14.02;;;;;;;;;;10516550;28;20489;-87
2022/10/21 16:02:05;;;;;;;22.42;12.25;;;;;;;;;;10508347;28;20406;-87
2022/10/21 16:07:17;;;;;;;21.88;12.63;;;;;;;;;;10509623;28;20519;-87
2022/10/21 16:12:20;;;;;;;20.85;12.88;;;;;;;;;;10508587;28;21077;-87
2022/10/21 16:17:23;;;;;;;23.00;12.70;;;;;;;;;;10506559;28;20503;-88
2022/10/21 16:22:26;;;;;;;21.73;12.63;;;;;;;;;;10506605;28;20915;-87
2022/10/21 16:27:29;;;;;;;21.77;13.57;;;;;;;;;;10512221;28;20515;-88
2022/10/21 16:32:31;;;;;;;22.08;14.52;;;;;;;;;;10517152;28;20424;-88
2022/10/21 16:37:34;;;;;;;20.30;13.27;;;;;;;;;;10514242;28;20435;-87
2022/10/21 16:42:36;;;;;;;22.13;13.63;;;;;;;;;;10514006;28;20401;-88
2022/10/21 16:47:38;;;;;;;24.30;13.32;;;;;;;;;;10517095;28;20494;-88
2022/10/21 16:52:42;;;;;;;23.88;14.10;;;;;;;;;;10516537;28;20523;-88
2022/10/21 16:57:44;;;;;;;25.13;14.38;;;;;;;;;;10510980;28;20416;-87
2022/10/21 17:02:48;;;;;;;27.30;15.30;;;;;;;;;;10515220;28;20416;-88
2022/10/21 17:07:52;;;;;;;27.20;15.23;;;;;;;;;;10516744;28;20773;-88
2022/10/21 17:12:57;;;;;;;26.83;16.00;;;;;;;;;;10517121;28;20431;-87
2022/10/21 17:17:59;;;;;;;26.07;15.50;;;;;;;;;;10513671;28;20431;-87
2022/10/21 17:23:03;;;;;;;27.70;16.60;;;;;;;;;;10507011;28;20423;-86
2022/10/21 17:28:05;;;;;;;25.23;15.73;;;;;;;;;;10503447;28;20436;-86
2022/10/21 17:33:07;;;;;;;25.33;16.50;;;;;;;;;;10512136;28;20423;-86
2022/10/21 17:38:11;;;;;;;25.13;16.33;;;;;;;;;;10511340;28;20507;-87
2022/10/21 17:43:13;;;;;;;26.65;16.13;;;;;;;;;;10508556;28;20912;-89
2022/10/21 17:48:14;;;;;;;23.80;15.85;;;;;;;;;;10510907;28;20462;-85
2022/10/21 17:53:18;;;;;;;26.43;16.40;;;;;;;;;;10522273;28;20609;-86
2022/10/21 17:58:20;;;;;;;25.27;16.73;;;;;;;;;;10515064;28;20494;-87
2022/10/21 18:03:22;;;;;;;25.57;16.20;;;;;;;;;;10517114;28;20410;-87
2022/10/21 18:08:26;;;;;;;23.10;14.90;;;;;;;;;;10514486;28;20412;-88
2022/10/21 18:13:30;;;;;;;27.43;16.20;;;;;;;;;;10509245;28;20902;-87
2022/10/21 18:18:32;;;;;;;26.50;15.93;;;;;;;;;;10510164;28;20704;-88
2022/10/21 18:23:36;;;;;;;25.87;17.10;;;;;;;;;;10520037;28;20397;-86
2022/10/21 18:28:38;;;;;;;26.13;17.35;;;;;;;;;;10525217;28;20876;-87
2022/10/21 18:33:40;;;;;;;25.08;16.58;;;;;;;;;;10517115;28;20850;-88
2022/10/21 18:38:44;;;;;;;27.88;18.05;;;;;;;;;;10515328;28;20457;-87
2022/10/21 18:43:46;;;;;;;27.77;17.80;;;;;;;;;;10517729;28;20499;-88
2022/10/21 18:48:49;;;;;;;27.13;18.42;;;;;;;;;;10516935;28;20495;-87
2022/10/21 18:53:52;;;;;;;27.65;17.88;;;;;;;;;;10521848;28;20461;-89
2022/10/21 18:58:56;;;;;;;29.70;18.30;;;;;;;;;;10507477;28;20415;-88
2022/10/21 19:03:58;;;;;;;28.87;18.83;;;;;;;;;;10515181;28;20409;-87
2022/10/21 19:09:03;;;;;;;28.77;19.07;;;;;;;;;;10513543;28;20498;-88
2022/10/21 19:14:05;;;;;;;32.58;19.00;;;;;;;;;;10510027;28;20413;-89
2022/10/21 19:19:08;;;;;;;28.90;18.10;;;;;;;;;;10511812;28;20503;-87
2022/10/21 19:24:11;;;;;;;26.00;18.17;;;;;;;;;;10513828;28;20499;-88
2022/10/21 19:29:16;;;;;;;27.63;17.88;;;;;;;;;;10516983;28;20487;-89
2022/10/21 19:34:19;;;;;;;28.15;18.35;;;;;;;;;;10514695;28;20980;-87
2022/10/21 19:39:23;;;;;;;30.60;18.67;;;;;;;;;;10516854;28;20413;-88
2022/10/21 19:44:25;;;;;;;26.35;17.30;;;;;;;;;;10515060;28;20502;-88
2022/10/21 19:49:27;;;;;;;26.65;17.75;;;;;;;;;;10512991;28;20461;-87
2022/10/21 19:54:30;;;;;;;29.50;18.05;;;;;;;;;;10516490;28;20432;-88
2022/10/21 19:59:32;;;;;;;28.93;17.43;;;;;;;;;;10515107;28;20433;-86
2022/10/21 20:04:34;;;;;;;28.80;17.58;;;;;;;;;;10518162;28;20499;-88
2022/10/21 20:09:37;;;;;;;27.95;18.02;;;;;;;;;;10515049;28;20970;-88
2022/10/21 20:14:39;;;;;;;25.75;16.75;;;;;;;;;;10511659;28;20954;-87
2022/10/21 20:19:41;;;;;;;26.50;17.40;;;;;;;;;;10514235;28;20939;-89
2022/10/21 20:24:44;;;;;;;25.92;17.60;;;;;;;;;;10514330;28;20519;-86
2022/10/21 20:29:47;;;;;;;26.08;17.13;;;;;;;;;;10518401;28;20509;-87
2022/10/21 20:34:50;;;;;;;27.95;17.65;;;;;;;;;;10515889;28;20504;-87
2022/10/21 20:39:53;;;;;;;26.38;17.35;;;;;;;;;;10514121;28;20493;-87
2022/10/21 20:44:55;;;;;;;26.70;17.27;;;;;;;;;;10513240;28;20460;-86
2022/10/21 20:49:57;;;;;;;25.80;17.50;;;;;;;;;;10514580;28;20424;-88
2022/10/21 20:55:00;;;;;;;28.83;16.95;;;;;;;;;;10513438;28;20419;-87
2022/10/21 21:00:03;;;;;;;23.37;16.13;;;;;;;;;;10517042;28;20507;-88
2022/10/21 21:05:06;;;;;;;26.83;17.17;;;;;;;;;;10517891;28;20435;-87
2022/10/21 21:10:10;;;;;;;25.50;16.57;;;;;;;;;;10516247;28;20487;-86
2022/10/21 21:15:12;;;;;;;26.67;16.80;;;;;;;;;;10518075;28;20426;-88
2022/10/21 21:20:13;;;;;;;25.20;16.85;;;;;;;;;;10515678;28;20998;-86
2022/10/21 21:25:17;;;;;;;23.95;17.30;;;;;;;;;;10515650;28;20512;-86
2022/10/21 21:30:19;;;;;;;25.97;15.93;;;;;;;;;;10514824;28;20497;-87
2022/10/21 21:35:21;;;;;;;24.70;16.47;;;;;;;;;;10515011;28;20451;-88
2022/10/21 21:40:24;;;;;;;28.00;16.95;;;;;;;;;;10525296;28;21158;-88
2022/10/21 21:45:26;;;;;;;24.38;15.88;;;;;;;;;;10527796;28;20495;-89
2022/10/21 21:50:28;;;;;;;27.60;17.05;;;;;;;;;;10526010;28;20530;-86
2022/10/21 21:55:32;;;;;;;25.85;16.60;;;;;;;;;;10525918;28;20524;-87
2022/10/21 22:00:34;;;;;;;23.80;15.57;;;;;;;;;;10526642;28;20527;-88
2022/10/21 22:05:36;;;;;;;23.15;16.13;;;;;;;;;;10514066;28;20519;-86
2022/10/21 22:10:39;;;;;;;21.60;15.82;;;;;;;;;;10520556;28;20856;-88
2022/10/21 22:15:41;;;;;;;21.40;15.18;;;;;;;;;;10515814;28;20440;-88
2022/10/21 22:20:43;;;;;;;27.00;15.48;;;;;;;;;;10523901;28;20490;-88
2022/10/21 22:25:48;;;;;;;24.10;15.60;;;;;;;;;;10522076;28;20430;-88
2022/10/21 22:30:58;;;;;;;22.77;15.00;;;;;;;;;;10520568;28;20396;-88
2022/10/21 22:36:00;;;;;;;24.00;15.52;;;;;;;;;;10519967;28;20731;-89
2022/10/21 22:41:04;;;;;;;22.88;15.98;;;;;;;;;;10509365;28;20504;-88
2022/10/21 22:46:07;;;;;;;23.50;15.80;;;;;;;;;;10515395;28;20405;-89
2022/10/21 22:51:08;;;;;;;23.00;15.43;;;;;;;;;;10518944;28;20855;-89
2022/10/21 22:56:12;;;;;;;24.73;15.90;;;;;;;;;;10514529;28;20440;-89
2022/10/21 23:01:16;;;;;;;21.88;15.30;;;;;;;;;;10512216;28;20890;-89
2022/10/21 23:06:18;;;;;;;23.35;15.57;;;;;;;;;;10506055;28;20876;-89
2022/10/21 23:11:21;;;;;;;23.63;15.83;;;;;;;;;;10518084;28;20874;-89
2022/10/21 23:16:23;;;;;;;24.23;16.27;;;;;;;;;;10521709;28;20507;-87
2022/10/21 23:21:25;;;;;;;24.63;16.40;;;;;;;;;;10504282;28;20585;-87
2022/10/21 23:26:29;;;;;;;25.30;16.00;;;;;;;;;;10502473;28;20478;-87
2022/10/21 23:31:30;;;;;;;23.60;16.45;;;;;;;;;;10495293;28;20428;-87
2022/10/21 23:36:34;;;;;;;25.37;16.70;;;;;;;;;;10511236;28;20410;-89
2022/10/21 23:41:37;;;;;;;25.67;16.77;;;;;;;;;;10514814;28;20440;-87
2022/10/21 23:46:39;;;;;;;25.23;17.05;;;;;;;;;;10507864;28;20822;-88
2022/10/21 23:51:41;;;;;;;26.25;17.13;;;;;;;;;;10517588;28;20480;-87
2022/10/21 23:56:45;;;;;;;23.88;17.60;;;;;;;;;;10514822;28;21001;-88
